Sign-in with your pilot id or email, or register

ICAO: EDDT Name / Country: Berlin Tegel Airport / Germany
Latitude: 52.5597 Longitude: 13.2877
Total Arrivals:
Strict Standards: Non-static method AirportData::getarrflights() should not be called statically, assuming $this from incompatible context in /var/www/customers/vh-7192/web/home/phpvms/core/templates/airport_info.tpl on line 18
6
Total Departures:
Strict Standards: Non-static method AirportData::getdeptflights() should not be called statically, assuming $this from incompatible context in /var/www/customers/vh-7192/web/home/phpvms/core/templates/airport_info.tpl on line 21
6
Latest Arrival: MTA11P (LHBP-EDDT) Tibor Berces Latest Departure: MTA673 (EDDT-LHBP) Tibor Berces
Metar: EDDT 172220Z 28014G24KT 250V310 9999 FEW034 10/05 Q1016
More info

Charts for EDDT


NOTAM


Warning: file_get_contents(http://api.vateud.net/notams/EDDT.json): failed to open stream: Redirection limit reached, aborting in /var/www/customers/vh-7192/web/home/phpvms/core/common/NOTAMSData.class.php on line 18

Warning: Invalid argument supplied for foreach() in /var/www/customers/vh-7192/web/home/phpvms/core/common/NOTAMSData.class.php on line 22

Berlin Tegel Airport